createdAt,value
2022-12-11T00:01:23.727Z,0.29
2022-12-11T00:03:50.388Z,0.27
2022-12-11T00:06:20.094Z,0.29
2022-12-11T00:08:46.614Z,0.30
2022-12-11T00:11:14.878Z,0.33
2022-12-11T00:13:41.966Z,0.33
2022-12-11T00:16:08.636Z,0.33
2022-12-11T00:18:35.443Z,0.33
2022-12-11T00:21:06.749Z,0.34
2022-12-11T00:23:35.520Z,0.35
2022-12-11T00:26:06.866Z,0.34
2022-12-11T00:28:34.318Z,0.35
2022-12-11T00:31:07.178Z,0.35
2022-12-11T00:33:33.836Z,0.35
2022-12-11T00:36:00.591Z,0.34
2022-12-11T00:38:27.427Z,0.34
2022-12-11T00:40:58.463Z,0.35
2022-12-11T00:43:24.855Z,0.34
2022-12-11T00:45:51.207Z,0.35
2022-12-11T00:48:18.559Z,0.37
2022-12-11T00:50:44.940Z,0.37
2022-12-11T00:53:11.343Z,0.38
2022-12-11T00:55:39.790Z,0.37
2022-12-11T00:58:07.053Z,0.41
2022-12-11T01:00:34.167Z,0.41
2022-12-11T01:03:00.697Z,0.41
2022-12-11T01:05:27.441Z,0.41
2022-12-11T01:07:53.843Z,0.43
2022-12-11T01:10:26.227Z,0.43
2022-12-11T01:12:59.044Z,0.45
2022-12-11T01:15:29.110Z,0.44
2022-12-11T01:17:56.397Z,0.44
2022-12-11T01:20:24.736Z,0.44
2022-12-11T01:22:59.262Z,0.45
2022-12-11T01:25:27.720Z,0.46
2022-12-11T01:27:55.375Z,0.48
2022-12-11T01:30:23.971Z,0.50
2022-12-11T01:32:50.532Z,0.49
2022-12-11T01:35:17.874Z,0.50
2022-12-11T01:37:44.699Z,0.51
2022-12-11T01:40:14.694Z,0.50
2022-12-11T01:42:41.143Z,0.50
2022-12-11T01:45:27.084Z,0.49
2022-12-11T01:48:02.200Z,0.50
2022-12-11T01:50:31.301Z,0.50
2022-12-11T01:52:57.846Z,0.51
2022-12-11T01:55:24.386Z,0.52
2022-12-11T01:57:52.707Z,0.50
2022-12-11T02:00:20.412Z,0.52
2022-12-11T02:02:46.988Z,0.52
2022-12-11T02:05:13.711Z,0.54
2022-12-11T02:07:47.703Z,0.53
2022-12-11T02:10:14.631Z,0.53
2022-12-11T02:13:14.701Z,0.52
2022-12-11T02:16:00.541Z,0.52
2022-12-11T02:18:38.934Z,0.54
2022-12-11T02:21:23.625Z,0.54
2022-12-11T02:24:31.287Z,0.54
2022-12-11T02:27:32.172Z,0.57
2022-12-11T02:30:06.568Z,0.57
2022-12-11T02:32:39.632Z,0.58
2022-12-11T02:35:13.267Z,0.59
2022-12-11T02:37:43.726Z,0.58
2022-12-11T02:40:14.435Z,0.59
2022-12-11T02:42:43.405Z,0.59
2022-12-11T02:45:12.448Z,0.58
2022-12-11T02:47:39.411Z,0.61
2022-12-11T02:50:11.506Z,0.61
2022-12-11T02:52:40.829Z,0.63
2022-12-11T02:55:10.512Z,0.64
2022-12-11T02:57:45.781Z,0.64
2022-12-11T03:00:13.001Z,0.64
2022-12-11T03:02:40.908Z,0.65
2022-12-11T03:05:09.195Z,0.64
2022-12-11T03:07:38.524Z,0.64
2022-12-11T03:10:07.087Z,0.67
2022-12-11T03:12:38.765Z,0.66
2022-12-11T03:15:10.490Z,0.68
2022-12-11T03:18:01.141Z,0.69
2022-12-11T03:20:38.026Z,0.68
2022-12-11T03:23:25.757Z,0.69
2022-12-11T03:26:03.952Z,0.69
2022-12-11T03:28:39.799Z,0.70
2022-12-11T03:31:11.367Z,0.70
2022-12-11T03:33:41.055Z,0.71
2022-12-11T03:36:11.992Z,0.73
2022-12-11T03:38:49.071Z,0.72
2022-12-11T03:41:18.583Z,0.73
2022-12-11T03:43:45.998Z,0.74
2022-12-11T03:46:14.298Z,0.73
2022-12-11T03:48:43.011Z,0.73
2022-12-11T03:51:09.664Z,0.72
2022-12-11T03:53:38.221Z,0.72
2022-12-11T03:56:07.088Z,0.71
2022-12-11T03:58:33.582Z,0.71
2022-12-11T04:00:59.973Z,0.71
2022-12-11T04:03:26.402Z,0.70
2022-12-11T04:05:55.540Z,0.71
2022-12-11T04:08:22.808Z,0.71
2022-12-11T04:11:09.604Z,0.71
2022-12-11T04:13:36.966Z,0.71
2022-12-11T04:16:03.968Z,0.72
2022-12-11T04:18:50.282Z,0.72
2022-12-11T04:21:39.436Z,0.72
2022-12-11T04:24:15.599Z,0.70
2022-12-11T04:26:44.246Z,0.70
2022-12-11T04:29:10.604Z,0.71
2022-12-11T04:31:37.046Z,0.69
2022-12-11T04:34:03.909Z,0.69
2022-12-11T04:36:30.278Z,0.69
2022-12-11T04:38:56.638Z,0.69
2022-12-11T04:41:23.009Z,0.68
2022-12-11T04:43:49.446Z,0.68
2022-12-11T04:46:21.670Z,0.70
2022-12-11T04:48:53.773Z,0.71
2022-12-11T04:51:23.333Z,0.73
2022-12-11T04:53:49.803Z,0.70
2022-12-11T04:56:16.686Z,0.72
2022-12-11T04:58:44.301Z,0.71
2022-12-11T05:01:14.113Z,0.70
2022-12-11T05:03:41.480Z,0.70
2022-12-11T05:06:09.099Z,0.70
2022-12-11T05:08:36.988Z,0.69
2022-12-11T05:11:06.772Z,0.70
2022-12-11T05:13:33.533Z,0.69
2022-12-11T05:16:00.057Z,0.68
2022-12-11T05:18:26.483Z,0.67
2022-12-11T05:20:58.147Z,0.65
2022-12-11T05:23:25.225Z,0.65
2022-12-11T05:26:00.089Z,0.67
2022-12-11T05:28:29.330Z,0.67
2022-12-11T05:30:57.866Z,0.68
2022-12-11T05:33:24.994Z,0.67
2022-12-11T05:35:51.611Z,0.64
2022-12-11T05:38:18.451Z,0.67
2022-12-11T05:40:45.161Z,0.67
2022-12-11T05:43:11.532Z,0.67
2022-12-11T05:45:38.336Z,0.66
2022-12-11T05:48:04.933Z,0.68
2022-12-11T05:50:31.316Z,0.67
2022-12-11T05:52:57.752Z,0.68
2022-12-11T05:55:24.086Z,0.67
2022-12-11T05:57:50.444Z,0.67
2022-12-11T06:00:16.803Z,0.65
2022-12-11T06:02:43.265Z,0.63
2022-12-11T06:05:09.926Z,0.64
2022-12-11T06:07:36.466Z,0.64
2022-12-11T06:10:02.884Z,0.63
2022-12-11T06:12:29.834Z,0.64
2022-12-11T06:14:56.491Z,0.64
2022-12-11T06:17:22.857Z,0.65
2022-12-11T06:19:49.225Z,0.63
2022-12-11T06:22:15.607Z,0.62
2022-12-11T06:24:41.954Z,0.64
2022-12-11T06:27:09.054Z,0.64
2022-12-11T06:29:35.671Z,0.64
2022-12-11T06:32:02.162Z,0.63
2022-12-11T06:34:28.813Z,0.61
2022-12-11T06:36:55.245Z,0.61
2022-12-11T06:39:21.614Z,0.61
2022-12-11T06:41:48.255Z,0.60
2022-12-11T06:44:14.625Z,0.61
2022-12-11T06:46:40.991Z,0.60
2022-12-11T06:49:07.462Z,0.60
2022-12-11T06:51:33.969Z,0.59
2022-12-11T06:54:00.346Z,0.57
2022-12-11T06:56:26.816Z,0.58
2022-12-11T06:58:53.517Z,0.55
2022-12-11T07:01:24.214Z,0.54
2022-12-11T07:04:01.590Z,0.55
2022-12-11T07:06:28.592Z,0.55
2022-12-11T07:08:55.758Z,0.54
2022-12-11T07:11:23.152Z,0.54
2022-12-11T07:13:49.725Z,0.53
2022-12-11T07:16:17.578Z,0.52
2022-12-11T07:18:49.240Z,0.52
2022-12-11T07:21:16.158Z,0.53
2022-12-11T07:23:42.592Z,0.53
2022-12-11T07:26:11.934Z,0.53
2022-12-11T07:28:38.690Z,0.55
2022-12-11T07:31:06.907Z,0.52
2022-12-11T07:33:33.827Z,0.52
2022-12-11T07:36:04.870Z,0.52
2022-12-11T07:38:31.958Z,0.52
2022-12-11T07:41:06.782Z,0.51
2022-12-11T07:43:34.309Z,0.52
2022-12-11T07:46:09.325Z,0.53
2022-12-11T07:48:36.593Z,0.51
2022-12-11T07:51:29.664Z,0.52
2022-12-11T07:53:58.768Z,0.50
2022-12-11T07:56:26.087Z,0.51
2022-12-11T07:58:52.452Z,0.51
2022-12-11T08:01:21.425Z,0.48
2022-12-11T08:03:48.744Z,0.47
2022-12-11T08:06:15.649Z,0.48
2022-12-11T08:08:42.381Z,0.47
2022-12-11T08:11:11.957Z,0.48
2022-12-11T08:13:38.478Z,0.49
2022-12-11T08:16:06.117Z,0.49
2022-12-11T08:18:34.107Z,0.50
2022-12-11T08:21:08.346Z,0.48
2022-12-11T08:23:35.173Z,0.47
2022-12-11T08:26:11.570Z,0.46
2022-12-11T08:28:37.978Z,0.47
2022-12-11T08:31:06.406Z,0.50
2022-12-11T08:33:33.404Z,0.48
2022-12-11T08:36:03.325Z,0.48
2022-12-11T08:38:29.688Z,0.47
2022-12-11T08:40:56.094Z,0.48
2022-12-11T08:43:22.449Z,0.47
2022-12-11T08:45:49.301Z,0.46
2022-12-11T08:48:15.724Z,0.47
2022-12-11T08:50:42.322Z,0.46
2022-12-11T08:53:08.711Z,0.47
2022-12-11T08:55:35.151Z,0.48
2022-12-11T08:58:01.577Z,0.51
2022-12-11T09:00:27.973Z,0.51
2022-12-11T09:02:54.352Z,0.47
2022-12-11T09:05:20.729Z,0.48
2022-12-11T09:07:47.111Z,0.52
2022-12-11T09:10:13.522Z,0.47
2022-12-11T09:12:40.436Z,0.43
2022-12-11T09:15:07.163Z,0.43
2022-12-11T09:17:35.090Z,0.47
2022-12-11T09:20:01.740Z,0.48
2022-12-11T09:22:28.481Z,0.49
2022-12-11T09:24:54.806Z,0.51
2022-12-11T09:27:21.368Z,0.56
2022-12-11T09:29:47.832Z,0.59
2022-12-11T09:32:14.170Z,0.68
2022-12-11T09:34:40.558Z,0.76
2022-12-11T09:37:06.911Z,0.82
2022-12-11T09:39:33.312Z,0.80
2022-12-11T09:42:16.883Z,0.81
2022-12-11T09:44:50.494Z,0.81
2022-12-11T09:47:38.422Z,0.84
2022-12-11T09:50:10.693Z,0.91
2022-12-11T09:53:05.796Z,1.00
2022-12-11T09:55:43.180Z,0.99
2022-12-11T09:58:38.941Z,1.04
2022-12-11T10:01:22.047Z,1.08
2022-12-11T10:04:13.374Z,1.12
2022-12-11T10:06:48.705Z,1.20
2022-12-11T10:09:27.751Z,1.22
2022-12-11T10:12:12.681Z,1.20
2022-12-11T10:15:15.097Z,1.25
2022-12-11T10:17:44.605Z,1.27
2022-12-11T10:20:24.422Z,1.30
2022-12-11T10:22:53.637Z,1.26
2022-12-11T10:25:30.142Z,1.29
2022-12-11T10:27:57.493Z,1.31
2022-12-11T10:30:28.414Z,1.33
2022-12-11T10:33:14.433Z,1.35
2022-12-11T10:35:47.780Z,1.37
2022-12-11T10:38:32.703Z,1.42
2022-12-11T10:41:02.467Z,1.43
2022-12-11T10:43:43.291Z,1.44
2022-12-11T10:46:26.762Z,1.50
2022-12-11T10:48:58.594Z,1.50
2022-12-11T10:51:32.521Z,1.50
2022-12-11T10:54:30.544Z,1.50
2022-12-11T10:56:58.743Z,1.50
2022-12-11T10:59:33.988Z,1.42
2022-12-11T11:02:00.591Z,1.33
2022-12-11T11:04:35.542Z,1.33
2022-12-11T11:07:34.500Z,1.39
2022-12-11T11:10:27.199Z,1.37
2022-12-11T11:13:01.286Z,1.43
2022-12-11T11:15:30.290Z,1.30
2022-12-11T11:18:03.768Z,1.35
2022-12-11T11:20:31.490Z,1.43
2022-12-11T11:23:01.798Z,1.52
2022-12-11T11:25:30.932Z,1.57
2022-12-11T11:28:03.640Z,1.53
2022-12-11T11:30:39.640Z,1.58
2022-12-11T11:33:18.901Z,1.56
2022-12-11T11:35:57.569Z,1.62
2022-12-11T11:38:28.230Z,1.70
2022-12-11T11:41:10.143Z,1.68
2022-12-11T11:43:51.063Z,1.67
2022-12-11T11:46:28.920Z,1.70
2022-12-11T11:49:20.554Z,1.75
2022-12-11T11:51:53.980Z,1.81
2022-12-11T11:54:20.270Z,1.85
2022-12-11T11:56:49.529Z,1.83
2022-12-11T11:59:26.694Z,1.85
2022-12-11T12:01:56.114Z,1.86
2022-12-11T12:04:22.784Z,1.89
2022-12-11T12:07:01.607Z,1.84
2022-12-11T12:09:44.481Z,1.87
2022-12-11T12:12:22.961Z,1.88
2022-12-11T12:15:30.538Z,1.87
2022-12-11T12:18:20.866Z,1.86
2022-12-11T12:20:55.306Z,1.86
2022-12-11T12:23:58.900Z,1.88
2022-12-11T12:26:36.996Z,1.90
2022-12-11T12:29:29.151Z,1.88
2022-12-11T12:31:55.515Z,1.86
2022-12-11T12:34:38.919Z,1.84
2022-12-11T12:37:23.899Z,1.84
2022-12-11T12:40:27.974Z,1.91
2022-12-11T12:43:05.926Z,1.88
2022-12-11T12:45:49.594Z,1.87
2022-12-11T12:48:16.547Z,1.86
2022-12-11T12:50:48.156Z,1.87
2022-12-11T12:53:20.368Z,1.89
2022-12-11T12:55:48.438Z,1.87
2022-12-11T12:58:40.429Z,1.90
2022-12-11T13:01:12.969Z,1.89
2022-12-11T13:03:53.808Z,1.89
2022-12-11T13:06:50.972Z,1.90
2022-12-11T13:09:28.361Z,1.92
2022-12-11T13:11:57.927Z,1.95
2022-12-11T13:14:32.416Z,1.92
2022-12-11T13:17:19.666Z,1.88
2022-12-11T13:19:48.147Z,1.87
2022-12-11T13:22:14.527Z,1.89
2022-12-11T13:24:49.872Z,1.83
2022-12-11T13:27:25.282Z,1.80
2022-12-11T13:29:52.581Z,1.82
2022-12-11T13:32:18.911Z,1.85
2022-12-11T13:34:53.551Z,1.85
2022-12-11T13:37:29.796Z,1.84
2022-12-11T13:39:57.043Z,1.80
2022-12-11T13:42:44.272Z,1.76
2022-12-11T13:45:36.958Z,1.76
2022-12-11T13:48:05.839Z,1.79
2022-12-11T13:50:34.644Z,1.74
2022-12-11T13:53:02.693Z,1.72
2022-12-11T13:55:32.471Z,1.71
2022-12-11T13:57:59.215Z,1.74
2022-12-11T14:00:31.311Z,1.71
2022-12-11T14:03:12.185Z,1.69
2022-12-11T14:05:41.584Z,1.66
2022-12-11T14:08:10.518Z,1.64
2022-12-11T14:10:38.056Z,1.66
2022-12-11T14:13:29.557Z,1.62
2022-12-11T14:15:56.207Z,1.58
2022-12-11T14:18:31.678Z,1.56
2022-12-11T14:21:01.417Z,1.57
2022-12-11T14:23:31.157Z,1.57
2022-12-11T14:26:24.940Z,1.53
2022-12-11T14:28:52.087Z,1.50
2022-12-11T14:31:34.385Z,1.51
2022-12-11T14:34:21.306Z,1.48
2022-12-11T14:36:49.450Z,1.50
2022-12-11T14:39:22.517Z,1.51
2022-12-11T14:42:13.476Z,1.49
2022-12-11T14:44:50.300Z,1.49
2022-12-11T14:47:21.612Z,1.50
2022-12-11T14:49:59.062Z,1.46
2022-12-11T14:52:35.878Z,1.47
2022-12-11T14:55:21.657Z,1.48
2022-12-11T14:57:57.883Z,1.44
2022-12-11T15:00:36.806Z,1.42
2022-12-11T15:03:07.491Z,1.39
2022-12-11T15:05:40.632Z,1.40
2022-12-11T15:08:10.627Z,1.39
2022-12-11T15:10:55.044Z,1.36
2022-12-11T15:13:24.733Z,1.33
2022-12-11T15:15:52.964Z,1.34
2022-12-11T15:18:27.146Z,1.34
2022-12-11T15:20:56.367Z,1.32
2022-12-11T15:23:22.800Z,1.32
2022-12-11T15:26:07.500Z,1.30
2022-12-11T15:28:36.769Z,1.28
2022-12-11T15:31:25.477Z,1.24
2022-12-11T15:33:52.019Z,1.23
2022-12-11T15:36:31.161Z,1.25
2022-12-11T15:38:58.395Z,1.23
2022-12-11T15:41:25.383Z,1.22
2022-12-11T15:43:58.686Z,1.24
2022-12-11T15:46:25.470Z,1.23
2022-12-11T15:48:51.987Z,1.23
2022-12-11T15:51:18.701Z,1.23
2022-12-11T15:53:45.235Z,1.21
2022-12-11T15:56:16.759Z,1.22
2022-12-11T15:58:45.770Z,1.18
2022-12-11T16:01:17.947Z,1.17
2022-12-11T16:03:45.846Z,1.18
2022-12-11T16:06:13.855Z,1.19
2022-12-11T16:08:40.539Z,1.17
2022-12-11T16:11:07.008Z,1.16
2022-12-11T16:13:33.398Z,1.15
2022-12-11T16:15:59.856Z,1.14
2022-12-11T16:18:26.971Z,1.17
2022-12-11T16:20:53.474Z,1.18
2022-12-11T16:23:20.492Z,1.15
2022-12-11T16:25:47.262Z,1.15
2022-12-11T16:28:15.554Z,1.14
2022-12-11T16:30:43.510Z,1.14
2022-12-11T16:33:13.134Z,1.15
2022-12-11T16:35:40.380Z,1.13
2022-12-11T16:38:07.778Z,1.12
2022-12-11T16:40:34.203Z,1.12
2022-12-11T16:43:00.587Z,1.10
2022-12-11T16:45:27.387Z,1.09
2022-12-11T16:47:54.064Z,1.08
2022-12-11T16:50:20.890Z,1.09
2022-12-11T16:52:47.416Z,1.09
2022-12-11T16:55:14.836Z,1.11
2022-12-11T16:57:41.993Z,1.08
2022-12-11T17:00:11.987Z,1.08
2022-12-11T17:02:38.467Z,1.07
2022-12-11T17:05:06.167Z,1.09
2022-12-11T17:07:33.100Z,1.07
2022-12-11T17:10:01.755Z,1.08
2022-12-11T17:12:28.485Z,1.08
2022-12-11T17:14:55.917Z,1.08
2022-12-11T17:17:22.667Z,1.07
2022-12-11T17:19:49.231Z,1.07
2022-12-11T17:22:15.597Z,1.06
2022-12-11T17:24:41.938Z,1.05
2022-12-11T17:27:08.295Z,1.06
2022-12-11T17:29:34.758Z,1.06
2022-12-11T17:32:03.111Z,0.99
2022-12-11T17:34:36.038Z,0.99
2022-12-11T17:37:04.489Z,0.99
2022-12-11T17:39:31.217Z,0.99
2022-12-11T17:41:57.642Z,0.99
2022-12-11T17:44:24.477Z,0.96
2022-12-11T17:46:50.868Z,0.95
2022-12-11T17:49:17.342Z,0.97
2022-12-11T17:51:43.726Z,0.95
2022-12-11T17:54:10.133Z,0.93
2022-12-11T17:56:36.825Z,0.93
2022-12-11T17:59:03.687Z,0.95
2022-12-11T18:01:30.395Z,0.95
2022-12-11T18:03:59.979Z,0.96
2022-12-11T18:06:26.462Z,0.95
2022-12-11T18:08:52.847Z,0.95
2022-12-11T18:11:21.732Z,0.97
2022-12-11T18:13:49.155Z,0.96
2022-12-11T18:16:21.895Z,0.97
2022-12-11T18:18:50.211Z,0.96
2022-12-11T18:21:23.962Z,0.95
2022-12-11T18:23:50.668Z,0.93
2022-12-11T18:26:18.768Z,0.93
2022-12-11T18:28:45.966Z,0.94
2022-12-11T18:31:13.516Z,0.93
2022-12-11T18:33:42.430Z,0.94
2022-12-11T18:36:09.433Z,0.92
2022-12-11T18:38:36.158Z,0.94
2022-12-11T18:41:04.874Z,0.92
2022-12-11T18:43:31.297Z,0.94
2022-12-11T18:45:57.839Z,0.93
2022-12-11T18:48:24.555Z,0.92
2022-12-11T18:50:52.477Z,0.90
2022-12-11T18:53:19.551Z,0.90
2022-12-11T18:55:48.107Z,0.90
2022-12-11T18:58:18.664Z,0.89
2022-12-11T19:00:46.450Z,0.87
2022-12-11T19:03:14.043Z,0.86
2022-12-11T19:05:42.548Z,0.87
2022-12-11T19:08:10.135Z,0.83
2022-12-11T19:10:44.889Z,0.84
2022-12-11T19:13:12.038Z,0.83
2022-12-11T19:15:40.447Z,0.78
2022-12-11T19:18:07.069Z,0.78
2022-12-11T19:21:01.591Z,0.75
2022-12-11T19:23:23.239Z,0.75
2022-12-11T19:25:50.490Z,0.72
2022-12-11T19:28:17.434Z,0.72
2022-12-11T19:30:45.555Z,0.71
2022-12-11T19:33:12.116Z,0.69
2022-12-11T19:35:38.592Z,0.67
2022-12-11T19:38:05.070Z,0.67
2022-12-11T19:40:31.490Z,0.65
2022-12-11T19:42:57.947Z,0.65
2022-12-11T19:45:24.327Z,0.65
2022-12-11T19:47:50.727Z,0.65
2022-12-11T19:50:17.253Z,0.63
2022-12-11T19:52:46.369Z,0.61
2022-12-11T19:55:14.914Z,0.60
2022-12-11T19:57:41.254Z,0.61
2022-12-11T20:00:08.306Z,0.59
2022-12-11T20:02:35.365Z,0.60
2022-12-11T20:05:01.746Z,0.59
2022-12-11T20:07:30.766Z,0.59
2022-12-11T20:10:00.165Z,0.58
2022-12-11T20:12:26.662Z,0.58
2022-12-11T20:14:53.060Z,0.57
2022-12-11T20:17:19.545Z,0.58
2022-12-11T20:19:45.938Z,0.59
2022-12-11T20:22:12.433Z,0.60
2022-12-11T20:24:38.955Z,0.60
2022-12-11T20:27:05.369Z,0.57
2022-12-11T20:29:32.332Z,0.57
2022-12-11T20:32:00.379Z,0.54
2022-12-11T20:34:27.215Z,0.50
2022-12-11T20:36:54.097Z,0.46
2022-12-11T20:39:20.571Z,0.38
2022-12-11T20:41:46.965Z,0.40
2022-12-11T20:44:13.343Z,0.41
2022-12-11T20:46:39.728Z,0.38
2022-12-11T20:49:12.544Z,0.39
2022-12-11T20:51:40.255Z,0.40
2022-12-11T20:54:06.853Z,0.40
2022-12-11T20:56:33.289Z,0.41
2022-12-11T20:59:00.601Z,0.41
2022-12-11T21:01:29.494Z,0.40
2022-12-11T21:03:56.307Z,0.42
2022-12-11T21:06:28.754Z,0.43
2022-12-11T21:08:55.238Z,0.42
2022-12-11T21:11:22.136Z,0.43
2022-12-11T21:13:48.585Z,0.43
2022-12-11T21:16:15.010Z,0.42
2022-12-11T21:18:43.424Z,0.42
2022-12-11T21:21:10.120Z,0.38
2022-12-11T21:23:36.575Z,0.40
2022-12-11T21:26:03.335Z,0.41
2022-12-11T21:28:35.178Z,0.42
2022-12-11T21:31:04.430Z,0.42
2022-12-11T21:33:31.202Z,0.41
2022-12-11T21:35:58.891Z,0.42
2022-12-11T21:38:26.033Z,0.41
2022-12-11T21:40:53.501Z,0.41
2022-12-11T21:43:19.957Z,0.44
2022-12-11T21:46:02.458Z,0.37
2022-12-11T21:48:29.151Z,0.35
2022-12-11T21:50:56.177Z,0.38
2022-12-11T21:53:22.908Z,0.42
2022-12-11T21:55:49.290Z,0.41
2022-12-11T21:58:15.668Z,0.40
2022-12-11T22:00:42.196Z,0.41
2022-12-11T22:03:08.602Z,0.33
2022-12-11T22:05:35.344Z,0.34
2022-12-11T22:08:02.228Z,0.36
2022-12-11T22:10:29.059Z,0.35
2022-12-11T22:12:55.796Z,0.38
2022-12-11T22:15:22.282Z,0.35
2022-12-11T22:17:48.634Z,0.35
2022-12-11T22:20:14.994Z,0.36
2022-12-11T22:22:41.627Z,0.36
2022-12-11T22:25:08.502Z,0.38
2022-12-11T22:27:35.265Z,0.36
2022-12-11T22:30:01.684Z,0.35
2022-12-11T22:32:28.030Z,0.35
2022-12-11T22:34:56.213Z,0.37
2022-12-11T22:37:22.629Z,0.35
2022-12-11T22:39:49.079Z,0.35
2022-12-11T22:42:15.620Z,0.35
2022-12-11T22:44:42.239Z,0.37
2022-12-11T22:47:08.633Z,0.36
2022-12-11T22:49:35.775Z,0.35
2022-12-11T22:52:02.127Z,0.35
2022-12-11T22:54:28.526Z,0.36
2022-12-11T22:56:54.918Z,0.36
2022-12-11T22:59:21.313Z,0.34
2022-12-11T23:01:47.666Z,0.35
2022-12-11T23:04:14.065Z,0.34
2022-12-11T23:06:40.759Z,0.31
2022-12-11T23:09:07.388Z,0.32
2022-12-11T23:11:37.664Z,0.30
2022-12-11T23:14:05.466Z,0.30
2022-12-11T23:16:31.859Z,0.28
2022-12-11T23:18:58.569Z,0.29
2022-12-11T23:21:26.407Z,0.30
2022-12-11T23:23:53.066Z,0.26
2022-12-11T23:26:19.891Z,0.25
2022-12-11T23:28:47.196Z,0.26
2022-12-11T23:31:14.664Z,0.28
2022-12-11T23:33:41.245Z,0.29
2022-12-11T23:36:08.642Z,0.28
2022-12-11T23:38:35.100Z,0.27
2022-12-11T23:41:02.404Z,0.29
2022-12-11T23:43:29.010Z,0.29
2022-12-11T23:45:55.666Z,0.30
2022-12-11T23:48:22.086Z,0.27
2022-12-11T23:50:48.636Z,0.29
2022-12-11T23:53:15.207Z,0.26
2022-12-11T23:55:44.246Z,0.29
2022-12-11T23:58:11.148Z,0.27
